Austin, TX

08:38 CST le 31 janvier 2015 (GMT -0600)
Thermal Lab Facility, CSD | Change Station
CLOSE
Current Station
Stations météorologiques personnelles
Location: Austin, TX
Altitude: 600 ft
Stations météo à proximité

Alt. 600 ft 30.29 °N, 97.74 °W | Updated 32 seconds ago

Couvert
Couvert
50.0 ° F
Paraît 50.0 ° F
N
1.0
Vent Variable Vent de Est
Gusts 4.0 mph

Aujourd'hui
Haut(e) -- | Bas -- ° F
--% Risque de précip.
Hier
Haut(e) -- | Bas -- ° F
Precip. -- pouce
7:22 AM 6:06 PM
Lune gibbeuse croissante, 90% visible
Pression 30.19 pouce
Visibilité 10.0 Miles terrestres
Nuages Couvert 1200 ft
Point de rosée 43 ° F
Humidité 78%
Précipitations 0.00 pouce
Profondeur de la couche neigeuse Non disponible.
UV 0 sur 12
Pollen 6.40 sur 12
Qualité de l'air Non disponible.
Flu Activity Non disponible.
METAR KATT 311351Z AUTO 12006KT 10SM OVC012 09/06 A3018 RMK AO2 SLP221 T00940061

More Conditions Fewer Conditions

Pression 30.19 pouce
Visibilité 10.0 Miles terrestres
Nuages Couvert 1200 ft
Point de rosée 43 ° F
Humidité 78%
Précipitations 0.00 pouce
Profondeur de la couche neigeuse Non disponible.
UV 0 sur 12
Pollen 6.40 sur 12
Qualité de l'air Non disponible.
Flu Activity Non disponible.
METAR KATT 311351Z AUTO 12006KT 10SM OVC012 09/06 A3018 RMK AO2 SLP221 T00940061

More Conditions Fewer Conditions

10-Day Weather Forecast

Almanac

Astronomie

Jan. 31, 2015 Lever Coucher
Temps réel
Crépuscule civil
Crépuscule nautique
Crépuscule astronomique
Lune
Durée de lumière visible
Longueur du jour
Tomorrow will be .
, % of the Moon is Illuminated

Extrêmes aujourd'hui

State Highs State Lows

Community

WunderPhotos

Upload Photos

1,792,060 Photos téléchargées !

WunderBlogs® & News

Nearby

Qualité de l'air

  Qualité de l'air Indice de la qualité de l'air Polluant
Not available.

Épaisseur de neige

Station Depth Altitude

Activité sismique

Ville Distance Mag. Time & Date
Minimum magnitude displayed is 2.5.

Températures des eaux côtières

Lieu Température

Stations météo à proximité